Aviation Digital Data Service (ADDS)

Output produced by METARs form (1634 UTC 24 April 2014)
found at http://aviationweather.gov/adds/metars/
 
KSFO 241627Z 2416/2518 27008KT P6SM FEW005 BKN015 
     FM241800 26012KT P6SM FEW005 
     FM242200 28019G25KT P6SM SCT025 BKN035 OVC150 
     FM250300 26015KT P6SM -SHRA SCT015 BKN025 
     FM250800 26008KT P6SM -SHRA SCT015 OVC025